EST,Max TemperatureF,Mean TemperatureF,Min TemperatureF,Max Dew PointF,MeanDew PointF,Min DewpointF,Max Humidity, Mean Humidity, Min Humidity, Max Sea Level PressureIn, Mean Sea Level PressureIn, Min Sea Level PressureIn, Max VisibilityMiles, Mean VisibilityMiles, Min VisibilityMiles, Max Wind SpeedMPH, Mean Wind SpeedMPH, Max Gust SpeedMPH,PrecipitationIn, CloudCover, Events, WindDirDegrees
2012-12-1,37,33,30,32,26,18,86,75,54,30.61,30.54,30.48,10,8,2,8,5,,0.00,8,Snow,34
2012-12-2,55,46,37,46,40,33,93,81,57,30.46,30.24,30.09,10,6,0,9,3,,0.04,7,Fog-Rain,216
2012-12-3,57,45,33,46,40,29,93,79,49,30.31,30.16,30.06,10,6,0,13,4,21,0.00,2,Fog,253
2012-12-4,59,44,28,54,40,25,93,87,81,30.33,30.22,30.00,9,7,3,12,1,18,0.00,7,Rain,178
2012-12-5,57,47,34,52,35,15,88,60,42,30.17,29.99,29.88,10,10,8,16,9,32,0.01,5,Rain,301
2012-12-6,42,32,21,18,15,12,82,54,32,30.34,30.29,30.20,10,10,10,13,7,20,0.00,0,,339
2012-12-7,42,32,21,38,32,17,93,85,60,30.30,30.14,30.05,10,5,2,0,0,,0.08,7,Rain,-1
2012-12-8,50,44,39,46,42,37,93,89,83,30.03,29.95,29.86,10,3,0,5,1,,0.21,8,Fog-Rain,13
2012-12-9,46,39,32,41,34,27,97,82,47,30.27,30.16,29.98,10,4,0,9,2,,0.07,5,Fog-Rain,39
2012-12-10,60,52,43,57,50,39,94,90,82,30.07,29.70,29.53,10,5,0,9,3,,0.29,8,Fog-Rain,186
2012-12-11,55,45,35,52,30,19,88,61,44,30.19,29.88,29.57,10,10,8,17,8,26,0.02,5,Rain,318
2012-12-12,41,34,28,24,21,18,82,61,40,30.44,30.35,30.20,10,10,8,8,4,,0.00,0,,315
2012-12-13,45,35,24,25,21,18,85,69,38,30.48,30.41,30.33,10,9,7,6,1,,0.00,0,,337
2012-12-14,48,34,19,25,20,16,85,66,32,30.30,30.21,30.11,10,9,2,9,1,,0.00,0,,259
2012-12-15,46,35,24,28,22,19,88,68,37,30.32,30.28,30.21,10,9,5,6,1,,0.00,1,,31
2012-12-16,37,36,34,34,28,23,86,74,61,30.30,30.17,30.02,10,8,4,9,5,18,0.05,8,Rain,62
2012-12-17,41,39,37,37,36,34,93,86,81,30.01,29.90,29.74,10,8,2,10,8,,0.21,8,Rain,28
2012-12-18,48,44,39,44,41,34,93,85,68,29.70,29.50,29.45,10,7,2,12,4,28,0.54,8,Rain,333
2012-12-19,46,44,39,34,29,25,71,58,50,30.06,29.75,29.52,10,10,10,18,10,28,0.00,6,Rain,314
2012-12-20,45,36,27,32,27,23,85,63,49,30.22,30.12,29.97,10,10,10,9,4,,0.03,4,Rain,76
2012-12-21,57,47,37,52,41,26,88,78,60,30.00,29.31,29.08,10,7,2,22,11,38,1.21,8,Rain,167
2012-12-22,37,34,32,30,23,16,81,61,46,29.72,29.46,29.27,10,10,5,18,8,37,0.01,7,Snow,271
2012-12-23,39,34,28,21,20,17,72,54,45,29.91,29.85,29.73,10,10,10,15,8,23,0.00,4,,254
2012-12-24,39,30,21,25,19,16,85,63,39,30.09,30.03,29.93,10,9,2,10,1,,0.02,2,Snow,291
2012-12-25,37,32,28,30,27,17,93,79,63,30.25,30.04,29.95,10,8,2,13,4,18,0.07,6,Rain-Snow,351
2012-12-26,36,28,19,31,23,13,87,72,44,30.31,30.10,29.78,10,6,1,22,7,38,0.24,4,Rain-Snow,58
2012-12-27,42,36,30,37,32,22,87,81,69,29.72,29.47,29.28,10,7,2,24,17,44,0.37,8,Rain-Snow,359
2012-12-28,36,32,24,21,19,16,81,63,50,30.05,29.92,29.71,10,10,10,15,9,23,0.00,3,,307
2012-12-29,36,28,21,29,25,18,93,82,64,30.04,29.66,29.42,10,4,0,12,4,17,0.37,7,Fog-Snow,13
2012-12-30,32,26,21,26,14,6,80,59,43,30.06,29.78,29.49,10,9,2,21,12,34,0.00,2,Snow,310
2012-12-31,35,22,9,20,15,3,77,59,52,30.09,30.00,29.82,10,10,10,9,4,,0.00,3,,233